createdAt,value
2022-10-23T00:01:51.299Z,13.30
2022-10-23T00:11:53.488Z,13.10
2022-10-23T00:21:55.127Z,13.10
2022-10-23T00:31:56.759Z,13.00
2022-10-23T00:41:58.392Z,13.00
2022-10-23T00:52:04.386Z,12.90
2022-10-23T01:02:06.561Z,12.90
2022-10-23T01:12:16.277Z,12.80
2022-10-23T01:22:32.591Z,12.70
2022-10-23T01:32:55.033Z,12.60
2022-10-23T01:43:01.026Z,12.30
2022-10-23T01:53:04.323Z,12.30
2022-10-23T02:03:08.796Z,12.60
2022-10-23T02:13:49.424Z,12.60
2022-10-23T02:24:14.318Z,12.50
2022-10-23T02:34:16.073Z,12.50
2022-10-23T02:44:45.131Z,12.60
2022-10-23T02:55:24.902Z,12.40
2022-10-23T03:05:32.135Z,12.40
2022-10-23T03:15:33.912Z,12.30
2022-10-23T03:25:35.524Z,12.30
2022-10-23T03:35:37.264Z,12.30
2022-10-23T03:45:38.915Z,12.30
2022-10-23T03:55:40.683Z,12.20
2022-10-23T04:05:43.141Z,12.20
2022-10-23T04:15:53.986Z,12.10
2022-10-23T04:25:58.808Z,11.90
2022-10-23T04:36:00.526Z,11.80
2022-10-23T04:46:02.206Z,11.80
2022-10-23T04:56:03.988Z,11.70
2022-10-23T05:06:06.256Z,11.80
2022-10-23T05:16:07.865Z,11.70
2022-10-23T05:26:09.521Z,11.80
2022-10-23T05:36:16.167Z,11.70
2022-10-23T05:46:17.884Z,11.70
2022-10-23T05:56:19.804Z,11.60
2022-10-23T06:06:21.676Z,11.60
2022-10-23T06:16:27.705Z,11.70
2022-10-23T06:26:29.353Z,11.60
2022-10-23T06:36:31.150Z,11.60
2022-10-23T06:46:35.019Z,11.60
2022-10-23T06:56:36.794Z,11.70
2022-10-23T07:06:38.455Z,11.70
2022-10-23T07:16:40.243Z,11.80
2022-10-23T07:26:42.002Z,11.80
2022-10-23T07:36:43.615Z,11.90
2022-10-23T07:46:45.209Z,11.90
2022-10-23T07:56:47.057Z,12.00
2022-10-23T08:06:49.181Z,12.00
2022-10-23T08:16:50.829Z,12.20
2022-10-23T08:26:52.466Z,12.10
2022-10-23T08:36:54.113Z,12.10
2022-10-23T08:46:59.260Z,12.30
2022-10-23T08:57:09.172Z,12.20
2022-10-23T09:07:39.585Z,12.50
2022-10-23T09:17:43.638Z,12.80
2022-10-23T09:27:57.443Z,13.20
2022-10-23T09:38:02.216Z,13.50
2022-10-23T09:48:16.158Z,14.10
2022-10-23T09:58:27.129Z,14.60
2022-10-23T10:08:44.176Z,14.70
2022-10-23T10:18:50.839Z,15.20
2022-10-23T10:29:12.619Z,15.50
2022-10-23T10:39:42.014Z,16.10
2022-10-23T10:50:03.546Z,16.50
2022-10-23T11:00:14.232Z,16.80
2022-10-23T11:10:18.840Z,17.00
2022-10-23T11:20:29.652Z,17.10
2022-10-23T11:31:11.990Z,17.30
2022-10-23T11:41:27.117Z,17.40
2022-10-23T11:51:33.350Z,17.50
2022-10-23T12:01:45.501Z,17.70
2022-10-23T12:12:00.818Z,17.80
2022-10-23T12:22:03.246Z,18.20
2022-10-23T12:32:29.665Z,18.70
2022-10-23T12:42:31.401Z,18.60
2022-10-23T12:52:35.631Z,18.60
2022-10-23T13:02:37.479Z,18.50
2022-10-23T13:22:52.155Z,18.50
2022-10-23T13:32:55.189Z,18.50
2022-10-23T13:42:57.315Z,18.60
2022-10-23T13:52:59.516Z,18.90
2022-10-23T14:03:01.134Z,19.30
2022-10-23T14:13:02.770Z,19.40
2022-10-23T14:23:04.404Z,19.50
2022-10-23T14:33:06.215Z,19.50
2022-10-23T14:43:07.903Z,19.30
2022-10-23T14:53:09.706Z,19.30
2022-10-23T15:03:11.319Z,19.30
2022-10-23T15:13:13.113Z,19.20
2022-10-23T15:23:14.742Z,19.00
2022-10-23T15:33:19.203Z,18.90
2022-10-23T15:43:21.659Z,18.60
2022-10-23T15:53:23.296Z,18.60
2022-10-23T16:03:25.051Z,18.40
2022-10-23T16:13:27.558Z,18.30
2022-10-23T16:23:29.299Z,18.20
2022-10-23T16:33:30.906Z,18.20
2022-10-23T16:43:32.703Z,18.10
2022-10-23T16:53:34.993Z,18.00
2022-10-23T17:03:38.550Z,17.90
2022-10-23T17:13:43.903Z,17.80
2022-10-23T17:23:45.574Z,17.70
2022-10-23T17:33:49.159Z,17.60
2022-10-23T17:43:51.130Z,17.60
2022-10-23T17:53:55.204Z,17.60
2022-10-23T18:04:00.754Z,17.60
2022-10-23T18:14:03.398Z,17.60
2022-10-23T18:24:05.375Z,17.60
2022-10-23T18:34:22.142Z,17.60
2022-10-23T18:44:25.197Z,17.60
2022-10-23T18:54:26.873Z,17.60
2022-10-23T19:04:31.722Z,17.60
2022-10-23T19:14:35.968Z,17.60
2022-10-23T19:24:41.560Z,17.50
2022-10-23T19:34:43.938Z,17.40
2022-10-23T19:44:45.528Z,17.40
2022-10-23T19:54:47.144Z,17.40
2022-10-23T20:04:48.765Z,17.40
2022-10-23T20:14:50.839Z,17.40
2022-10-23T20:24:52.510Z,17.30
2022-10-23T20:34:54.258Z,17.30
2022-10-23T20:44:55.966Z,17.20
2022-10-23T20:54:57.601Z,17.10
2022-10-23T21:04:59.455Z,17.00
2022-10-23T21:15:01.052Z,16.90
2022-10-23T21:25:02.724Z,16.90
2022-10-23T21:35:04.619Z,16.80
2022-10-23T21:45:06.827Z,16.70
2022-10-23T21:55:08.934Z,16.60
2022-10-23T22:05:10.579Z,16.60
2022-10-23T22:15:12.213Z,16.60
2022-10-23T22:25:13.810Z,16.50
2022-10-23T22:35:15.481Z,16.40
2022-10-23T22:45:17.182Z,16.40
2022-10-23T22:55:18.809Z,16.40
2022-10-23T23:05:20.432Z,16.40
2022-10-23T23:15:22.031Z,16.40
2022-10-23T23:25:23.666Z,16.30
2022-10-23T23:35:25.414Z,16.30
2022-10-23T23:45:27.476Z,16.20
2022-10-23T23:55:29.122Z,16.20
